Time;durP1;ratioP1;P1;durP2;ratioP2;P2;SDS_P1;SDS_P2;PMS_P1;PMS_P2;Temp;Humidity;BMP_temperature;BMP_pressure;BME280_temperature;BME280_humidity;BME280_pressure;Samples;Min_cycle;Max_cycle;Signal;HPM_P1;HPM_P2
2023/06/29 06:20:42;;;;;;;80.68;39.85;;;25.60;82.20;;;;;;7384887;19;20020;-74
2023/06/29 06:23:10;;;;;;;78.05;39.05;;;25.70;82.40;;;;;;7379604;19;20019;-74
2023/06/29 06:25:39;;;;;;;75.55;39.47;;;25.70;82.30;;;;;;7380377;19;20268;-74
2023/06/29 06:28:08;;;;;;;72.38;38.53;;;25.80;82.50;;;;;;7403672;19;20002;-72
2023/06/29 06:30:36;;;;;;;68.40;39.40;;;25.80;82.50;;;;;;7379606;19;20010;-74
2023/06/29 06:33:07;;;;;;;74.43;38.75;;;25.80;82.20;;;;;;7377860;19;20002;-75
2023/06/29 06:35:36;;;;;;;71.35;37.63;;;25.80;82.00;;;;;;7379871;19;20011;-74
2023/06/29 06:38:12;;;;;;;83.03;37.95;;;25.90;81.90;;;;;;7382146;19;20006;-75
2023/06/29 06:40:41;;;;;;;74.03;36.50;;;25.90;81.90;;;;;;7378276;19;20026;-74
2023/06/29 06:43:09;;;;;;;74.13;38.95;;;25.90;81.70;;;;;;7401172;19;20007;-75
2023/06/29 06:45:38;;;;;;;84.13;40.67;;;25.90;81.40;;;;;;7382944;19;20014;-74
2023/06/29 06:48:07;;;;;;;72.70;38.17;;;25.90;81.50;;;;;;7381053;19;20007;-74
2023/06/29 06:50:42;;;;;;;71.35;38.92;;;26.00;81.80;;;;;;7378725;19;20071;-73
2023/06/29 06:53:16;;;;;;;77.75;41.58;;;26.00;81.70;;;;;;7380056;19;20003;-73
2023/06/29 06:55:55;;;;;;;79.07;38.38;;;26.10;81.80;;;;;;7377850;19;20012;-74
2023/06/29 06:58:24;;;;;;;77.47;37.63;;;26.10;81.40;;;;;;7393691;19;20006;-73
2023/06/29 07:00:53;;;;;;;73.05;35.50;;;26.20;80.70;;;;;;7398676;19;20010;-75
2023/06/29 07:03:25;;;;;;;68.00;36.55;;;26.20;80.30;;;;;;7378003;19;20251;-75
2023/06/29 07:05:55;;;;;;;75.40;39.17;;;26.20;80.00;;;;;;7378226;19;20007;-75
2023/06/29 07:08:34;;;;;;;63.63;34.45;;;26.30;79.90;;;;;;7377724;19;20031;-75
2023/06/29 07:11:02;;;;;;;69.82;33.55;;;26.30;79.70;;;;;;7379905;19;20006;-72
2023/06/29 07:13:31;;;;;;;59.00;31.90;;;26.40;79.40;;;;;;7379033;19;20067;-71
2023/06/29 07:16:00;;;;;;;62.40;32.95;;;26.40;78.90;;;;;;7400412;19;20224;-72
2023/06/29 07:18:28;;;;;;;57.75;31.00;;;26.50;78.80;;;;;;7378731;19;20698;-73
2023/06/29 07:20:57;;;;;;;64.35;31.77;;;26.50;78.70;;;;;;7379154;19;20002;-74
2023/06/29 07:23:28;;;;;;;54.40;29.70;;;26.50;78.90;;;;;;7380122;19;20362;-75
2023/06/29 07:25:57;;;;;;;53.65;28.48;;;26.50;78.80;;;;;;7380928;19;20020;-75
2023/06/29 07:28:27;;;;;;;52.33;29.73;;;26.50;78.40;;;;;;7377238;19;20409;-74
2023/06/29 07:30:57;;;;;;;58.03;27.30;;;26.50;78.10;;;;;;7399163;19;20011;-75
2023/06/29 07:33:30;;;;;;;54.85;28.02;;;26.50;78.00;;;;;;7375782;19;21018;-74
2023/06/29 07:35:58;;;;;;;56.95;29.30;;;26.60;78.00;;;;;;7377863;19;20006;-74
2023/06/29 07:38:30;;;;;;;57.83;30.38;;;26.60;77.60;;;;;;7382041;19;20017;-74
2023/06/29 07:40:58;;;;;;;53.55;30.27;;;26.60;77.60;;;;;;7378864;19;20078;-75
2023/06/29 07:43:27;;;;;;;54.47;28.52;;;26.60;77.60;;;;;;7376720;19;20006;-75
2023/06/29 07:45:56;;;;;;;56.22;30.77;;;26.60;77.60;;;;;;7398904;19;20054;-75
2023/06/29 07:48:26;;;;;;;64.63;30.13;;;26.60;77.30;;;;;;7376566;19;20027;-73
2023/06/29 07:50:55;;;;;;;52.10;29.88;;;26.60;77.00;;;;;;7376974;19;20003;-74
2023/06/29 07:53:24;;;;;;;58.67;28.58;;;26.70;76.90;;;;;;7376845;19;20293;-74
2023/06/29 07:55:55;;;;;;;59.55;29.55;;;26.70;76.80;;;;;;7377334;19;20019;-74
2023/06/29 07:58:24;;;;;;;51.15;28.13;;;26.70;76.60;;;;;;7393136;19;20015;-73
2023/06/29 08:00:52;;;;;;;57.97;29.23;;;26.70;76.30;;;;;;7399694;19;20007;-73
2023/06/29 08:03:21;;;;;;;53.25;28.55;;;26.80;76.20;;;;;;7377715;19;20245;-72
2023/06/29 08:05:52;;;;;;;58.63;27.45;;;26.80;75.90;;;;;;7378316;19;19999;-74
2023/06/29 08:08:21;;;;;;;46.38;26.80;;;26.80;75.80;;;;;;7377246;19;20019;-75
2023/06/29 08:10:50;;;;;;;55.50;26.88;;;26.80;75.80;;;;;;7381928;19;20010;-75
2023/06/29 08:13:25;;;;;;;53.00;26.08;;;26.80;75.50;;;;;;7402854;19;20354;-74
2023/06/29 08:15:53;;;;;;;53.08;27.45;;;26.90;75.40;;;;;;7384242;19;20003;-74
2023/06/29 08:18:22;;;;;;;53.83;27.65;;;26.90;75.30;;;;;;7382959;19;20385;-75
2023/06/29 08:20:51;;;;;;;43.83;25.20;;;27.00;74.90;;;;;;7383770;19;20078;-73
2023/06/29 08:23:19;;;;;;;39.58;23.23;;;27.10;74.10;;;;;;7385305;19;20006;-73
2023/06/29 08:25:51;;;;;;;46.80;22.50;;;27.20;73.70;;;;;;7388058;19;20016;-75
2023/06/29 08:28:20;;;;;;;39.78;22.83;;;27.30;73.40;;;;;;7406507;19;20054;-72
2023/06/29 08:30:51;;;;;;;43.58;24.40;;;27.40;73.00;;;;;;7387085;19;20071;-72
2023/06/29 08:33:23;;;;;;;43.17;22.70;;;27.40;72.70;;;;;;7382846;19;20023;-73
2023/06/29 08:35:52;;;;;;;54.60;21.25;;;27.50;72.20;;;;;;7384161;19;20027;-71
2023/06/29 08:38:21;;;;;;;45.80;22.55;;;27.50;72.00;;;;;;7384180;19;20002;-72
2023/06/29 08:40:49;;;;;;;43.20;21.90;;;27.50;71.90;;;;;;7383743;19;20370;-73
2023/06/29 08:43:19;;;;;;;40.45;22.67;;;27.50;72.00;;;;;;7405053;19;20366;-72
2023/06/29 08:45:50;;;;;;;40.78;23.15;;;27.50;70.90;;;;;;7383806;19;20054;-71
2023/06/29 08:48:20;;;;;;;45.45;22.90;;;27.30;71.40;;;;;;7382581;19;20365;-71
2023/06/29 08:50:55;;;;;;;50.43;22.37;;;27.30;71.50;;;;;;7382390;19;20066;-70
2023/06/29 08:53:24;;;;;;;50.25;23.75;;;27.20;72.00;;;;;;7381787;19;20010;-71
2023/06/29 08:55:53;;;;;;;54.40;26.33;;;27.20;72.10;;;;;;7384300;19;20018;-70
2023/06/29 08:58:23;;;;;;;50.75;25.42;;;27.20;72.60;;;;;;7407478;19;20031;-73
2023/06/29 09:00:56;;;;;;;49.92;26.60;;;27.20;73.60;;;;;;7382849;19;20002;-71
2023/06/29 09:03:26;;;;;;;51.47;27.52;;;27.20;74.70;;;;;;7381624;19;20497;-73
2023/06/29 09:05:55;;;;;;;55.25;27.20;;;27.20;75.50;;;;;;7382276;19;20038;-72
2023/06/29 09:08:27;;;;;;;54.42;27.92;;;27.20;76.10;;;;;;7382349;19;20035;-78
2023/06/29 09:10:56;;;;;;;53.42;28.40;;;27.20;76.30;;;;;;7381400;19;20070;-73
2023/06/29 09:13:28;;;;;;;51.45;27.67;;;27.30;75.50;;;;;;7398477;19;20035;-73
2023/06/29 09:16:00;;;;;;;52.20;27.60;;;27.20;75.60;;;;;;7403753;19;20623;-74
2023/06/29 09:18:29;;;;;;;57.78;31.70;;;27.30;75.30;;;;;;7382453;19;20011;-74
2023/06/29 09:20:59;;;;;;;58.33;29.25;;;27.30;75.00;;;;;;7381967;19;20007;-73
2023/06/29 09:23:28;;;;;;;55.88;29.98;;;27.30;75.30;;;;;;7382882;19;20306;-72
2023/06/29 09:25:58;;;;;;;51.88;28.33;;;27.40;75.10;;;;;;7383113;19;20006;-72
2023/06/29 09:28:28;;;;;;;53.70;28.40;;;27.40;74.80;;;;;;7379250;19;20006;-71
2023/06/29 09:31:09;;;;;;;52.95;27.23;;;27.50;74.20;;;;;;7400716;19;20011;-71
2023/06/29 09:33:37;;;;;;;45.40;25.25;;;27.60;74.20;;;;;;7380287;19;20011;-72
2023/06/29 09:36:09;;;;;;;43.13;24.70;;;27.60;74.10;;;;;;7381207;19;20283;-73
2023/06/29 09:38:37;;;;;;;43.47;23.20;;;27.60;72.70;;;;;;7381741;19;20014;-73
2023/06/29 09:41:09;;;;;;;46.33;23.77;;;27.60;72.90;;;;;;7380607;19;20006;-72
2023/06/29 09:43:38;;;;;;;44.97;23.88;;;27.70;73.00;;;;;;7381854;19;20006;-71
2023/06/29 09:46:12;;;;;;;49.67;25.25;;;27.80;73.00;;;;;;7401836;19;20006;-73
2023/06/29 09:48:48;;;;;;;45.55;24.52;;;27.70;73.50;;;;;;7382635;19;20007;-73
2023/06/29 09:51:22;;;;;;;47.95;24.30;;;27.60;73.20;;;;;;7381157;19;20016;-72
2023/06/29 09:53:51;;;;;;;53.60;23.98;;;27.60;73.30;;;;;;7380703;19;20006;-72
2023/06/29 09:56:19;;;;;;;46.65;24.75;;;27.70;73.50;;;;;;7381015;19;20023;-72
2023/06/29 09:58:49;;;;;;;44.65;24.08;;;27.70;73.40;;;;;;7381062;19;20011;-73
2023/06/29 10:01:21;;;;;;;45.83;22.52;;;27.80;72.50;;;;;;7402551;19;20003;-73
2023/06/29 10:03:50;;;;;;;43.50;22.45;;;27.90;72.70;;;;;;7381136;19;20007;-73
2023/06/29 10:06:22;;;;;;;33.40;19.50;;;27.90;71.60;;;;;;7381055;19;20014;-73
2023/06/29 10:08:56;;;;;;;38.47;19.63;;;27.80;70.90;;;;;;7380504;19;20003;-71
2023/06/29 10:11:29;;;;;;;38.13;20.27;;;27.90;70.30;;;;;;7381701;19;20066;-72
2023/06/29 10:14:03;;;;;;;38.95;19.52;;;27.90;70.20;;;;;;7381650;19;20027;-71
2023/06/29 10:16:37;;;;;;;43.80;20.70;;;27.90;69.90;;;;;;7382388;19;20013;-72
2023/06/29 10:19:14;;;;;;;44.25;20.30;;;27.80;70.10;;;;;;7400733;19;20025;-75
2023/06/29 10:21:43;;;;;;;45.33;22.00;;;27.70;70.70;;;;;;7381927;19;20383;-71
2023/06/29 10:24:15;;;;;;;39.42;21.85;;;27.70;70.70;;;;;;7379232;19;20006;-72
2023/06/29 10:26:47;;;;;;;54.22;23.45;;;27.70;71.80;;;;;;7380193;19;20027;-73
2023/06/29 10:29:16;;;;;;;41.90;22.65;;;27.70;72.50;;;;;;7379012;19;20018;-71
2023/06/29 10:31:49;;;;;;;46.38;24.48;;;27.60;72.90;;;;;;7377662;19;20363;-74
2023/06/29 10:34:18;;;;;;;52.53;24.98;;;27.40;73.50;;;;;;7400791;19;20019;-75
2023/06/29 10:36:48;;;;;;;48.03;25.45;;;27.30;74.10;;;;;;7378966;19;20002;-74
2023/06/29 10:39:44;;;;;;;53.03;25.05;;;27.30;74.20;;;;;;7380903;19;19998;-74
2023/06/29 10:42:16;;;;;;;51.83;25.58;;;27.40;74.50;;;;;;7380246;19;20014;-74
2023/06/29 10:44:49;;;;;;;47.25;27.02;;;27.10;74.70;;;;;;7378507;19;20019;-75
2023/06/29 10:47:37;;;;;;;52.72;27.88;;;27.30;74.80;;;;;;7379138;19;20357;-73
2023/06/29 10:50:25;;;;;;;48.05;25.67;;;27.40;73.80;;;;;;7378971;19;20889;-74
2023/06/29 10:52:53;;;;;;;51.60;27.38;;;27.50;73.80;;;;;;7379282;19;20007;-74
2023/06/29 10:55:25;;;;;;;49.28;26.73;;;27.50;72.60;;;;;;7398531;19;20251;-74
2023/06/29 10:57:58;;;;;;;47.05;27.33;;;27.60;72.60;;;;;;7378070;19;20358;-74
2023/06/29 11:00:27;;;;;;;57.58;27.80;;;27.60;72.70;;;;;;7377910;19;20042;-73
2023/06/29 11:03:01;;;;;;;46.40;27.25;;;27.70;72.70;;;;;;7378880;19;20055;-74
2023/06/29 11:05:30;;;;;;;47.10;27.30;;;27.90;71.90;;;;;;7381241;19;20026;-74
2023/06/29 11:07:59;;;;;;;55.17;28.65;;;28.00;72.00;;;;;;7383068;19;20007;-74
2023/06/29 11:10:28;;;;;;;53.38;28.70;;;28.20;70.70;;;;;;7378756;19;20017;-74
2023/06/29 11:12:57;;;;;;;53.45;28.88;;;28.30;70.00;;;;;;7399266;19;20035;-73
2023/06/29 11:15:26;;;;;;;52.60;29.80;;;28.30;69.20;;;;;;7375933;19;20002;-74
2023/06/29 11:17:57;;;;;;;56.97;28.65;;;28.40;69.10;;;;;;7380783;19;19999;-74
2023/06/29 11:20:31;;;;;;;49.70;29.48;;;28.50;68.80;;;;;;7376877;19;20019;-74
2023/06/29 11:23:00;;;;;;;51.22;29.10;;;28.50;68.80;;;;;;7378319;19;20009;-74
2023/06/29 11:25:32;;;;;;;54.42;30.33;;;28.50;68.10;;;;;;7377810;19;20024;-71
2023/06/29 11:28:01;;;;;;;49.67;29.77;;;28.40;67.90;;;;;;7398376;19;20003;-74
2023/06/29 11:30:30;;;;;;;56.35;30.00;;;28.10;69.10;;;;;;7379936;19;19999;-73
2023/06/29 11:33:03;;;;;;;51.85;30.67;;;28.00;68.80;;;;;;7384815;19;20002;-74
2023/06/29 11:35:32;;;;;;;57.47;30.95;;;27.80;69.00;;;;;;7377663;19;20003;-75
2023/06/29 11:38:02;;;;;;;61.25;32.28;;;27.70;69.80;;;;;;7378056;19;20006;-74
2023/06/29 11:40:31;;;;;;;59.35;32.78;;;27.30;71.10;;;;;;7377860;19;20026;-73
2023/06/29 11:43:00;;;;;;;60.83;33.85;;;27.20;72.30;;;;;;7398494;19;20017;-72
2023/06/29 11:45:28;;;;;;;61.95;34.70;;;26.80;73.00;;;;;;7384119;19;20010;-74
2023/06/29 11:48:00;;;;;;;69.43;34.90;;;26.70;74.30;;;;;;7384557;19;20010;-73
2023/06/29 11:50:30;;;;;;;60.03;34.05;;;26.60;74.80;;;;;;7384363;19;20251;-73
2023/06/29 11:52:59;;;;;;;60.65;35.08;;;26.70;75.40;;;;;;7384825;19;20012;-74
2023/06/29 11:55:28;;;;;;;60.65;35.05;;;26.80;75.30;;;;;;7383071;19;20021;-74
2023/06/29 11:57:57;;;;;;;64.55;34.17;;;26.90;74.70;;;;;;7406705;19;20007;-75
2023/06/29 12:00:32;;;;;;;60.13;33.08;;;27.00;74.00;;;;;;7386203;19;20362;-74
2023/06/29 12:03:09;;;;;;;60.03;32.78;;;27.10;74.00;;;;;;7384211;19;20036;-74
2023/06/29 12:05:42;;;;;;;55.63;32.22;;;27.20;72.10;;;;;;7384008;19;20031;-73
2023/06/29 12:08:12;;;;;;;63.92;32.00;;;27.20;70.50;;;;;;7382247;19;20051;-74
2023/06/29 12:10:41;;;;;;;53.33;30.08;;;27.30;70.90;;;;;;7384116;19;20003;-72
2023/06/29 12:13:12;;;;;;;50.92;29.42;;;27.40;70.10;;;;;;7406129;19;20010;-71
2023/06/29 12:15:46;;;;;;;54.08;30.00;;;27.70;69.00;;;;;;7380964;19;20007;-72
2023/06/29 12:18:18;;;;;;;51.95;29.35;;;27.70;68.30;;;;;;7383086;19;20009;-70
2023/06/29 12:20:49;;;;;;;51.65;28.02;;;27.90;68.40;;;;;;7382144;19;20070;-71
2023/06/29 12:23:18;;;;;;;45.08;26.35;;;28.10;66.10;;;;;;7383912;19;20292;-73
2023/06/29 12:25:49;;;;;;;48.00;27.10;;;28.30;66.00;;;;;;7383839;19;20006;-73
2023/06/29 12:28:19;;;;;;;52.03;28.30;;;28.50;65.60;;;;;;7406443;19;20014;-73
2023/06/29 12:30:47;;;;;;;50.83;29.27;;;28.70;65.40;;;;;;7383213;19;20666;-75
2023/06/29 12:33:19;;;;;;;51.97;29.73;;;28.70;64.50;;;;;;7382476;19;20020;-71
2023/06/29 12:35:48;;;;;;;53.05;30.20;;;28.80;64.70;;;;;;7382694;19;20009;-73
2023/06/29 12:38:16;;;;;;;50.25;28.90;;;28.80;64.80;;;;;;7383002;19;20390;-72
2023/06/29 12:40:45;;;;;;;54.45;28.00;;;28.80;64.70;;;;;;7383420;19;19996;-71
2023/06/29 12:43:13;;;;;;;43.75;27.58;;;28.80;64.10;;;;;;7401784;19;20023;-72
2023/06/29 12:45:42;;;;;;;47.55;27.52;;;28.80;65.30;;;;;;7382454;19;20418;-71
2023/06/29 12:48:11;;;;;;;50.97;28.55;;;28.90;64.70;;;;;;7381826;19;20014;-72
2023/06/29 12:50:42;;;;;;;46.45;25.75;;;28.90;64.60;;;;;;7384582;19;20354;-71
2023/06/29 12:53:11;;;;;;;53.70;26.30;;;28.80;64.10;;;;;;7384162;19;20066;-72
2023/06/29 12:55:40;;;;;;;49.00;26.08;;;28.80;64.40;;;;;;7379819;19;20007;-71
2023/06/29 12:58:08;;;;;;;43.83;25.60;;;28.70;65.30;;;;;;7401508;19;20010;-72
2023/06/29 13:00:37;;;;;;;51.40;26.48;;;28.70;65.10;;;;;;7381972;19;20076;-73
2023/06/29 13:03:11;;;;;;;45.70;25.83;;;28.70;65.10;;;;;;7382182;19;20274;-72
2023/06/29 13:05:42;;;;;;;42.70;25.50;;;28.80;65.50;;;;;;7382461;19;20402;-70
2023/06/29 13:08:11;;;;;;;47.85;26.95;;;28.90;65.00;;;;;;7380497;19;20296;-71
2023/06/29 13:10:41;;;;;;;46.53;26.60;;;28.90;64.10;;;;;;7383277;19;20007;-73
2023/06/29 13:13:09;;;;;;;45.85;26.75;;;28.90;63.90;;;;;;7404737;19;20007;-70
2023/06/29 13:15:38;;;;;;;45.92;26.52;;;29.00;64.50;;;;;;7380851;19;20007;-70
2023/06/29 13:18:07;;;;;;;42.42;23.50;;;29.00;64.50;;;;;;7383036;19;20019;-72
2023/06/29 13:20:38;;;;;;;43.30;24.52;;;29.00;62.30;;;;;;7379340;19;20070;-78
2023/06/29 13:23:10;;;;;;;44.63;25.92;;;29.00;62.00;;;;;;7379926;19;20070;-72
2023/06/29 13:25:39;;;;;;;42.33;25.80;;;29.00;62.20;;;;;;7380225;19;20353;-73
2023/06/29 13:28:08;;;;;;;39.85;24.02;;;28.90;63.00;;;;;;7403193;19;20011;-73
2023/06/29 13:30:37;;;;;;;36.45;22.15;;;28.80;63.20;;;;;;7381274;19;20013;-74
2023/06/29 13:33:08;;;;;;;36.35;21.38;;;28.60;63.40;;;;;;7382158;19;20448;-78
2023/06/29 13:35:36;;;;;;;;;;;28.50;62.60;;;;;;7382588;19;20219;-76
2023/06/29 13:38:05;;;;;;;37.85;22.27;;;28.30;62.30;;;;;;7380770;19;19911;-74
2023/06/29 13:40:36;;;;;;;35.90;20.92;;;28.20;63.20;;;;;;7382703;19;20029;-74
2023/06/29 13:43:05;;;;;;;51.15;22.05;;;28.10;63.60;;;;;;7408179;19;20003;-74
2023/06/29 13:45:34;;;;;;;41.00;21.52;;;27.90;65.50;;;;;;7381643;19;20006;-75
2023/06/29 13:48:03;;;;;;;46.38;22.85;;;27.60;67.50;;;;;;7380912;19;20020;-75
2023/06/29 13:50:32;;;;;;;44.90;20.75;;;27.50;68.20;;;;;;7381338;19;20011;-72
2023/06/29 13:53:00;;;;;;;47.25;21.10;;;27.20;69.00;;;;;;7379558;19;20019;-73
2023/06/29 13:55:29;;;;;;;46.92;20.77;;;27.20;69.60;;;;;;7378672;19;20019;-74
2023/06/29 13:58:00;;;;;;;40.70;22.33;;;27.30;70.20;;;;;;7400036;19;20007;-73
2023/06/29 14:00:29;;;;;;;37.17;20.35;;;27.10;71.70;;;;;;7380714;19;20006;-76
2023/06/29 14:02:59;;;;;;;42.33;21.08;;;26.90;72.60;;;;;;7381329;19;19999;-74
2023/06/29 14:05:28;;;;;;;33.05;18.52;;;26.80;72.70;;;;;;7384540;19;20031;-78
2023/06/29 14:07:57;;;;;;;38.58;19.52;;;26.80;71.90;;;;;;7383523;19;20238;-74
2023/06/29 14:10:26;;;;;;;44.55;20.30;;;26.80;71.20;;;;;;7387222;19;20019;-72
2023/06/29 14:12:55;;;;;;;33.80;18.83;;;26.70;71.00;;;;;;7401970;19;20010;-73
2023/06/29 14:15:26;;;;;;;35.90;19.10;;;26.70;70.20;;;;;;7378540;19;20084;-73
2023/06/29 14:17:55;;;;;;;34.47;17.73;;;26.50;70.30;;;;;;7379746;19;20003;-76
2023/06/29 14:20:24;;;;;;;33.83;18.10;;;26.50;70.50;;;;;;7379817;19;20011;-73
2023/06/29 14:22:53;;;;;;;35.75;17.95;;;26.70;69.70;;;;;;7379325;19;20011;-76
2023/06/29 14:25:22;;;;;;;30.23;18.08;;;26.70;69.50;;;;;;7404338;19;20215;-77
2023/06/29 14:27:50;;;;;;;31.83;17.88;;;26.80;69.90;;;;;;7379610;19;20024;-76
2023/06/29 14:30:19;;;;;;;33.67;16.48;;;26.90;69.10;;;;;;7380188;19;20382;-75
2023/06/29 14:32:51;;;;;;;28.88;17.02;;;27.10;68.80;;;;;;7382147;19;20034;-74
2023/06/29 14:35:19;;;;;;;31.60;16.77;;;27.00;68.40;;;;;;7379295;19;20023;-75
2023/06/29 14:37:48;;;;;;;30.60;16.17;;;27.00;68.30;;;;;;7378708;19;20978;-76
2023/06/29 14:40:17;;;;;;;33.50;15.10;;;27.00;68.60;;;;;;7401153;19;20010;-77
2023/06/29 14:42:46;;;;;;;28.70;15.75;;;26.80;68.60;;;;;;7380075;19;20247;-76
2023/06/29 14:45:15;;;;;;;29.13;15.85;;;26.70;68.60;;;;;;7379318;19;20007;-74
2023/06/29 14:47:43;;;;;;;34.45;16.58;;;26.60;69.00;;;;;;7378542;19;20373;-74
2023/06/29 14:50:17;;;;;;;28.17;15.40;;;26.60;69.30;;;;;;7379131;19;20361;-75
2023/06/29 14:52:46;;;;;;;31.65;15.50;;;26.70;69.80;;;;;;7378142;19;20094;-73
2023/06/29 14:55:14;;;;;;;28.65;15.52;;;26.60;69.70;;;;;;7399066;19;20027;-71
2023/06/29 14:57:43;;;;;;;25.67;15.50;;;26.70;69.90;;;;;;7378744;19;20419;-73
2023/06/29 15:00:13;;;;;;;27.33;14.82;;;26.70;69.90;;;;;;7381824;19;20409;-74
2023/06/29 15:02:42;;;;;;;27.77;15.27;;;26.70;69.70;;;;;;7382294;19;20393;-73
2023/06/29 15:05:11;;;;;;;27.77;15.50;;;26.80;69.70;;;;;;7379448;19;20020;-74
2023/06/29 15:07:42;;;;;;;28.05;15.70;;;26.70;69.40;;;;;;7379091;19;20062;-74
2023/06/29 15:10:12;;;;;;;32.70;15.18;;;26.60;69.80;;;;;;7400428;19;20026;-74
2023/06/29 15:12:41;;;;;;;26.27;14.95;;;26.60;70.00;;;;;;7377819;19;19999;-74
2023/06/29 15:15:10;;;;;;;27.40;15.20;;;26.30;70.70;;;;;;7376853;19;20031;-71
2023/06/29 15:17:39;;;;;;;30.88;15.13;;;26.30;71.10;;;;;;7379573;19;20003;-73
2023/06/29 15:20:09;;;;;;;30.58;16.10;;;26.40;71.40;;;;;;7386652;19;20369;-73
2023/06/29 15:22:38;;;;;;;25.63;14.23;;;26.30;71.70;;;;;;7384191;19;20291;-72
2023/06/29 15:25:10;;;;;;;37.70;14.75;;;26.10;74.30;;;;;;7405659;19;20239;-73
2023/06/29 15:27:39;;;;;;;28.38;14.60;;;25.90;77.00;;;;;;7389531;19;20279;-73
2023/06/29 15:30:09;;;;;;;26.50;15.25;;;25.80;78.10;;;;;;7384390;19;20248;-74
2023/06/29 15:32:38;;;;;;;34.05;15.68;;;25.60;79.60;;;;;;7385057;19;20007;-74
2023/06/29 15:35:08;;;;;;;26.13;14.93;;;25.50;81.10;;;;;;7384462;19;20014;-75
2023/06/29 15:37:37;;;;;;;28.35;15.23;;;25.20;82.20;;;;;;7385216;19;20034;-76
2023/06/29 15:40:11;;;;;;;26.58;14.40;;;25.30;83.20;;;;;;7406286;19;20067;-73
2023/06/29 15:42:40;;;;;;;24.90;15.40;;;25.20;83.80;;;;;;7383897;19;20007;-74
2023/06/29 15:45:10;;;;;;;31.60;14.93;;;25.10;84.50;;;;;;7384594;19;20030;-74
2023/06/29 15:47:41;;;;;;;28.20;14.02;;;25.30;84.30;;;;;;7383820;19;20002;-76
2023/06/29 15:50:11;;;;;;;27.52;15.15;;;25.20;84.40;;;;;;7384513;19;20074;-74
2023/06/29 15:52:39;;;;;;;31.73;14.18;;;25.20;85.00;;;;;;7389716;19;20003;-74
2023/06/29 15:55:11;;;;;;;26.55;14.18;;;25.20;85.50;;;;;;7407979;19;20010;-74
2023/06/29 15:57:40;;;;;;;21.88;13.05;;;25.00;85.90;;;;;;7383827;19;20006;-74
2023/06/29 16:00:10;;;;;;;25.33;12.35;;;25.10;85.60;;;;;;7384666;19;20107;-75
2023/06/29 16:02:39;;;;;;;25.98;12.57;;;24.90;85.90;;;;;;7386686;19;20125;-74
2023/06/29 16:05:08;;;;;;;17.88;10.55;;;24.90;86.00;;;;;;7383796;19;20489;-74
2023/06/29 16:07:37;;;;;;;19.40;9.68;;;25.00;86.00;;;;;;7383677;19;20262;-74
2023/06/29 16:10:07;;;;;;;21.15;9.32;;;24.90;85.30;;;;;;7405039;19;20070;-71
2023/06/29 16:12:38;;;;;;;15.20;8.40;;;24.90;85.40;;;;;;7382874;19;20003;-72
2023/06/29 16:15:08;;;;;;;14.57;8.43;;;24.90;85.00;;;;;;7383093;19;20040;-73
2023/06/29 16:17:37;;;;;;;13.77;7.70;;;24.80;85.10;;;;;;7384783;19;20306;-71
2023/06/29 16:20:08;;;;;;;11.30;7.20;;;25.00;85.10;;;;;;7385660;19;20019;-72
2023/06/29 16:22:37;;;;;;;14.45;7.72;;;25.20;84.60;;;;;;7380673;19;20018;-73
2023/06/29 16:25:06;;;;;;;11.70;6.45;;;25.40;83.70;;;;;;7404704;19;20003;-72
2023/06/29 16:27:38;;;;;;;11.10;6.47;;;25.50;82.60;;;;;;7381953;19;20062;-70
2023/06/29 16:30:08;;;;;;;19.00;7.18;;;25.60;82.50;;;;;;7380589;19;20114;-72
2023/06/29 16:32:37;;;;;;;12.43;5.77;;;25.80;82.20;;;;;;7382883;19;20415;-73
2023/06/29 16:35:06;;;;;;;13.98;6.80;;;25.80;81.50;;;;;;7381226;19;20007;-72
2023/06/29 16:37:35;;;;;;;7.55;5.38;;;25.90;81.60;;;;;;7381187;19;20062;-74
2023/06/29 16:40:04;;;;;;;10.95;5.57;;;25.80;80.90;;;;;;7405769;19;20006;-73
2023/06/29 16:42:33;;;;;;;8.88;5.05;;;25.60;80.10;;;;;;7384875;19;20252;-73
2023/06/29 16:45:04;;;;;;;7.50;4.50;;;25.40;80.00;;;;;;7386766;19;20019;-73
2023/06/29 16:47:33;;;;;;;8.05;4.78;;;25.20;79.70;;;;;;7383863;19;20019;-74
2023/06/29 16:50:01;;;;;;;6.00;4.20;;;25.20;80.30;;;;;;7383200;19;20003;-74
2023/06/29 16:52:30;;;;;;;6.50;3.83;;;25.20;80.50;;;;;;7381828;19;20010;-75
2023/06/29 16:54:59;;;;;;;11.60;4.47;;;25.00;80.70;;;;;;7406468;19;20010;-76
2023/06/29 16:57:28;;;;;;;4.93;3.55;;;25.00;81.00;;;;;;7382004;19;20016;-76
2023/06/29 16:59:56;;;;;;;9.20;3.45;;;24.90;81.00;;;;;;7382275;19;20244;-75
2023/06/29 17:02:28;;;;;;;14.32;12.02;;;24.90;80.30;;;;;;7381760;19;20023;-75
2023/06/29 17:04:56;;;;;;;7.13;5.45;;;25.10;80.00;;;;;;7381803;19;20003;-75
2023/06/29 17:07:25;;;;;;;9.05;5.90;;;25.20;79.10;;;;;;7383020;19;20002;-73
2023/06/29 17:09:58;;;;;;;4.72;3.40;;;25.10;78.50;;;;;;7405852;19;20032;-73
2023/06/29 17:12:27;;;;;;;5.72;4.30;;;25.30;77.70;;;;;;7383456;19;20018;-75
2023/06/29 17:14:56;;;;;;;7.57;3.70;;;25.30;77.60;;;;;;7381681;19;20051;-75
2023/06/29 17:17:27;;;;;;;3.80;3.00;;;25.50;77.70;;;;;;7381025;19;20007;-72
2023/06/29 17:19:57;;;;;;;5.70;3.30;;;25.50;77.30;;;;;;7378941;19;20664;-74
2023/06/29 17:22:31;;;;;;;4.57;2.88;;;25.50;77.10;;;;;;7378515;19;20024;-74
2023/06/29 17:25:03;;;;;;;5.55;3.00;;;25.50;77.20;;;;;;7400205;19;20011;-77
2023/06/29 17:27:32;;;;;;;5.25;3.55;;;25.20;77.10;;;;;;7380566;19;20096;-74
2023/06/29 17:30:02;;;;;;;6.78;3.28;;;25.10;77.00;;;;;;7378381;19;20003;-75
2023/06/29 17:32:33;;;;;;;8.43;3.30;;;25.10;77.30;;;;;;7378537;19;20088;-74
2023/06/29 17:35:02;;;;;;;;;;;25.60;77.00;;;;;;7380637;19;20227;-73
2023/06/29 17:37:31;;;;;;;8.05;2.83;;;25.90;75.80;;;;;;7382718;19;20137;-74
2023/06/29 17:39:59;;;;;;;4.90;3.45;;;26.20;74.00;;;;;;7399862;19;20041;-74
2023/06/29 17:42:28;;;;;;;5.10;3.30;;;26.50;72.60;;;;;;7375807;19;20011;-74
2023/06/29 17:45:15;;;;;;;6.90;3.50;;;26.40;72.00;;;;;;7384275;19;20030;-74
2023/06/29 17:47:46;;;;;;;5.05;2.90;;;26.20;72.40;;;;;;7384382;19;20006;-74
2023/06/29 17:50:15;;;;;;;7.03;3.00;;;25.90;72.60;;;;;;7384513;19;20003;-74
2023/06/29 17:52:44;;;;;;;7.03;2.88;;;25.60;73.20;;;;;;7383682;19;20274;-73
2023/06/29 17:55:23;;;;;;;4.68;2.60;;;25.70;73.60;;;;;;7407133;19;20011;-78
2023/06/29 17:57:52;;;;;;;4.63;2.78;;;25.50;73.40;;;;;;7383303;19;20024;-74
2023/06/29 18:00:21;;;;;;;5.15;2.83;;;25.80;73.60;;;;;;7380613;19;20021;-72
2023/06/29 18:02:53;;;;;;;4.38;2.90;;;25.90;72.70;;;;;;7386181;19;20018;-73
2023/06/29 18:05:22;;;;;;;5.75;3.10;;;25.90;72.60;;;;;;7385194;19;20007;-73
2023/06/29 18:07:51;;;;;;;4.30;3.00;;;25.70;72.80;;;;;;7381955;19;20260;-73
2023/06/29 18:10:19;;;;;;;8.40;3.08;;;25.60;73.20;;;;;;7406935;19;20014;-73
2023/06/29 18:12:48;;;;;;;8.95;2.95;;;25.50;73.80;;;;;;7383582;19;20023;-73
2023/06/29 18:15:18;;;;;;;5.88;3.15;;;25.50;73.80;;;;;;7384250;19;20007;-71
2023/06/29 18:17:47;;;;;;;5.30;2.58;;;25.50;74.10;;;;;;7383849;19;20333;-73
2023/06/29 18:20:20;;;;;;;5.85;2.97;;;25.60;74.10;;;;;;7383810;19;20003;-73
2023/06/29 18:22:49;;;;;;;5.20;3.13;;;25.90;73.80;;;;;;7382378;19;20010;-73
2023/06/29 18:25:18;;;;;;;6.28;3.58;;;26.10;72.90;;;;;;7406116;19;20043;-73
2023/06/29 18:27:47;;;;;;;6.40;4.78;;;26.20;72.40;;;;;;7386659;19;20353;-74
2023/06/29 18:30:16;;;;;;;4.18;3.63;;;26.30;71.90;;;;;;7386058;19;20018;-73
2023/06/29 18:32:45;;;;;;;20.30;13.10;;;26.10;71.70;;;;;;7384681;19;20027;-73
2023/06/29 18:35:14;;;;;;;7.25;3.78;;;26.20;72.40;;;;;;7384206;19;20006;-73
2023/06/29 18:37:45;;;;;;;9.38;3.95;;;26.10;72.30;;;;;;7384983;19;20016;-73
2023/06/29 18:40:15;;;;;;;6.65;4.00;;;26.00;72.50;;;;;;7406398;19;20062;-74
2023/06/29 18:42:44;;;;;;;5.38;3.70;;;25.90;72.90;;;;;;7383569;19;20024;-73
2023/06/29 18:45:13;;;;;;;8.40;4.43;;;25.70;72.90;;;;;;7385446;19;20026;-73
2023/06/29 18:47:41;;;;;;;9.45;4.47;;;25.30;73.90;;;;;;7383772;19;20014;-74
2023/06/29 18:50:11;;;;;;;6.35;4.57;;;25.10;74.80;;;;;;7383423;19;20070;-74
2023/06/29 18:52:39;;;;;;;14.50;4.72;;;24.90;75.40;;;;;;7384180;19;20254;-74
2023/06/29 18:55:11;;;;;;;8.05;4.65;;;24.90;76.00;;;;;;7407968;19;20015;-73
2023/06/29 18:57:40;;;;;;;7.95;4.78;;;24.90;76.10;;;;;;7381590;19;20409;-74
2023/06/29 19:00:10;;;;;;;9.68;5.82;;;24.90;76.40;;;;;;7382745;19;20007;-74
2023/06/29 19:02:41;;;;;;;10.55;5.25;;;24.90;76.40;;;;;;7382880;19;20006;-74
2023/06/29 19:05:13;;;;;;;11.30;5.50;;;24.90;76.60;;;;;;7382697;19;20036;-73